CPX955 Details

Departure: Sacramento International Airport (KSMF)
Arrival: Travis Air Force Base (KSUU)
Notes: EMPTY | NON-REVENUE REPOSITIONING LEG | VFR DEPARTURE RCMD IF WX PERMITS


Current Weather Information
KSMF 251053Z 19014KT 10SM SCT008 13/11 A2977 RMK AO2 SLP081 T01280106
KSUU 251058Z AUTO 23016G23KT 10SM OVC009 12/10 A2978 RMK AO2 PK WND 23028/13 SLP091 T01230098 $